createdAt,value
2018-10-07T00:02:21.728Z,13.30
2018-10-07T00:04:50.027Z,13.20
2018-10-07T00:07:18.284Z,13.20
2018-10-07T00:09:46.520Z,13.10
2018-10-07T00:12:15.209Z,13.10
2018-10-07T00:14:43.450Z,13.00
2018-10-07T00:17:11.658Z,13.00
2018-10-07T00:19:39.930Z,13.00
2018-10-07T00:22:08.149Z,12.90
2018-10-07T00:24:36.352Z,12.90
2018-10-07T00:27:04.667Z,12.90
2018-10-07T00:29:32.904Z,12.90
2018-10-07T00:32:06.947Z,12.80
2018-10-07T00:34:35.164Z,12.80
2018-10-07T00:37:03.370Z,12.80
2018-10-07T00:39:32.215Z,12.80
2018-10-07T00:42:00.414Z,12.80
2018-10-07T00:44:28.622Z,12.70
2018-10-07T00:46:56.861Z,12.80
2018-10-07T00:49:25.123Z,12.80
2018-10-07T00:51:53.387Z,12.80
2018-10-07T00:54:21.665Z,12.70
2018-10-07T00:56:49.871Z,12.70
2018-10-07T00:59:18.078Z,12.70
2018-10-07T01:01:46.558Z,12.70
2018-10-07T01:04:14.763Z,12.70
2018-10-07T01:06:43.033Z,12.70
2018-10-07T01:09:12.631Z,12.60
2018-10-07T01:11:40.930Z,12.50
2018-10-07T01:14:09.795Z,12.50
2018-10-07T01:16:38.086Z,12.50
2018-10-07T01:19:06.318Z,12.60
2018-10-07T01:21:34.521Z,12.50
2018-10-07T01:24:03.026Z,12.50
2018-10-07T01:26:31.253Z,12.50
2018-10-07T01:28:59.570Z,12.50
2018-10-07T01:31:28.089Z,12.40
2018-10-07T01:33:56.304Z,12.40
2018-10-07T01:36:24.505Z,12.40
2018-10-07T01:38:53.114Z,12.40
2018-10-07T01:41:21.321Z,12.40
2018-10-07T01:43:49.531Z,12.40
2018-10-07T01:46:18.091Z,12.30
2018-10-07T01:48:46.342Z,12.30
2018-10-07T01:51:14.533Z,12.30
2018-10-07T01:53:43.310Z,12.30
2018-10-07T01:56:11.545Z,12.30
2018-10-07T01:58:40.643Z,12.20
2018-10-07T02:01:09.104Z,12.20
2018-10-07T02:03:37.326Z,12.10
2018-10-07T02:06:05.538Z,12.20
2018-10-07T02:08:34.198Z,12.20
2018-10-07T02:11:02.401Z,12.10
2018-10-07T02:13:30.613Z,12.10
2018-10-07T02:15:58.930Z,12.10
2018-10-07T02:18:27.136Z,12.10
2018-10-07T02:20:55.357Z,12.10
2018-10-07T02:23:23.665Z,12.10
2018-10-07T02:25:51.885Z,12.00
2018-10-07T02:28:20.075Z,12.00
2018-10-07T02:30:48.743Z,12.00
2018-10-07T02:33:17.085Z,12.00
2018-10-07T02:35:45.286Z,12.00
2018-10-07T02:38:13.528Z,11.90
2018-10-07T02:40:42.353Z,11.90
2018-10-07T02:43:10.633Z,11.90
2018-10-07T02:45:39.583Z,12.00
2018-10-07T02:48:08.025Z,11.90
2018-10-07T02:50:36.242Z,11.90
2018-10-07T02:53:05.386Z,11.90
2018-10-07T02:55:33.636Z,11.90
2018-10-07T02:58:03.445Z,12.00
2018-10-07T03:00:32.281Z,11.90
2018-10-07T03:03:00.497Z,11.90
2018-10-07T03:05:28.699Z,11.90
2018-10-07T03:07:56.941Z,11.90
2018-10-07T03:10:25.153Z,11.90
2018-10-07T03:12:53.361Z,11.90
2018-10-07T03:15:21.983Z,11.90
2018-10-07T03:17:50.632Z,11.80
2018-10-07T03:20:18.840Z,11.80
2018-10-07T03:22:47.423Z,11.80
2018-10-07T03:25:15.634Z,11.80
2018-10-07T03:27:43.838Z,11.70
2018-10-07T03:30:12.057Z,11.80
2018-10-07T03:32:40.358Z,11.70
2018-10-07T03:35:08.558Z,11.70
2018-10-07T03:37:36.766Z,11.70
2018-10-07T03:40:04.994Z,11.70
2018-10-07T03:42:33.251Z,11.70
2018-10-07T03:45:01.914Z,11.60
2018-10-07T03:47:30.202Z,11.60
2018-10-07T03:49:58.418Z,11.60
2018-10-07T03:52:26.689Z,11.60
2018-10-07T03:54:54.905Z,11.50
2018-10-07T03:57:23.129Z,11.50
2018-10-07T03:59:51.878Z,11.40
2018-10-07T04:02:20.090Z,11.40
2018-10-07T04:04:48.305Z,11.30
2018-10-07T04:07:16.523Z,11.30
2018-10-07T04:09:44.757Z,11.30
2018-10-07T04:12:12.963Z,11.30
2018-10-07T04:14:42.159Z,11.30
2018-10-07T04:17:10.369Z,11.40
2018-10-07T04:19:39.101Z,11.30
2018-10-07T04:22:07.598Z,11.30
2018-10-07T04:24:35.994Z,11.30
2018-10-07T04:27:04.214Z,11.30
2018-10-07T04:29:32.626Z,11.40
2018-10-07T04:32:01.076Z,11.40
2018-10-07T04:34:29.301Z,11.40
2018-10-07T04:36:58.274Z,11.40
2018-10-07T04:39:27.482Z,11.40
2018-10-07T04:41:55.862Z,11.30
2018-10-07T04:44:24.201Z,11.30
2018-10-07T04:46:52.430Z,11.30
2018-10-07T04:49:20.621Z,11.30
2018-10-07T04:51:49.418Z,11.30
2018-10-07T04:54:17.638Z,11.30
2018-10-07T04:56:45.856Z,11.40
2018-10-07T04:59:14.733Z,11.30
2018-10-07T05:01:43.063Z,11.20
2018-10-07T05:04:11.410Z,11.30
2018-10-07T05:06:40.102Z,11.20
2018-10-07T05:09:09.710Z,11.20
2018-10-07T05:11:38.575Z,11.20
2018-10-07T05:14:08.242Z,11.10
2018-10-07T05:16:44.156Z,11.10
2018-10-07T05:19:13.190Z,11.10
2018-10-07T05:21:41.610Z,11.00
2018-10-07T05:24:10.242Z,11.00
2018-10-07T05:26:38.498Z,11.00
2018-10-07T05:29:06.701Z,10.90
2018-10-07T05:31:35.942Z,10.90
2018-10-07T05:34:04.302Z,10.80
2018-10-07T05:36:32.518Z,10.80
2018-10-07T05:39:00.734Z,10.80
2018-10-07T05:41:29.313Z,10.70
2018-10-07T05:43:57.564Z,10.70
2018-10-07T05:46:25.798Z,10.70
2018-10-07T05:48:54.297Z,10.70
2018-10-07T05:51:22.502Z,10.70
2018-10-07T05:53:51.918Z,10.60
2018-10-07T05:56:21.150Z,10.60
2018-10-07T05:58:50.429Z,10.60
2018-10-07T06:01:37.293Z,10.50
2018-10-07T06:04:14.391Z,10.50
2018-10-07T06:06:42.959Z,10.50
2018-10-07T06:09:13.742Z,10.40
2018-10-07T06:11:41.955Z,10.40
2018-10-07T06:16:23.617Z,10.40
2018-10-07T06:18:51.841Z,10.30
2018-10-07T06:21:20.069Z,10.30
2018-10-07T06:23:48.662Z,10.30
2018-10-07T06:26:16.869Z,10.30
2018-10-07T06:28:45.090Z,10.30
2018-10-07T06:31:13.940Z,10.30
2018-10-07T06:33:42.143Z,10.30
2018-10-07T06:36:10.357Z,10.30
2018-10-07T06:38:39.048Z,10.30
2018-10-07T06:41:07.198Z,10.50
2018-10-07T06:43:35.409Z,10.50
2018-10-07T06:46:03.741Z,10.50
2018-10-07T06:48:31.969Z,10.50
2018-10-07T06:51:00.194Z,10.50
2018-10-07T06:53:29.582Z,10.50
2018-10-07T06:55:57.894Z,10.40
2018-10-07T06:58:26.366Z,10.50
2018-10-07T07:00:54.718Z,10.60
2018-10-07T07:03:23.622Z,10.70
2018-10-07T07:05:51.925Z,10.80
2018-10-07T07:08:21.173Z,10.90
2018-10-07T07:10:49.410Z,11.10
2018-10-07T07:13:17.798Z,11.30
2018-10-07T07:15:46.087Z,11.30
2018-10-07T07:18:14.309Z,11.30
2018-10-07T07:20:42.505Z,11.30
2018-10-07T07:23:10.818Z,11.50
2018-10-07T07:25:39.077Z,11.30
2018-10-07T07:28:07.311Z,11.20
2018-10-07T07:30:35.534Z,11.30
2018-10-07T07:33:03.734Z,11.40
2018-10-07T07:35:31.946Z,11.50
2018-10-07T07:38:00.602Z,11.60
2018-10-07T07:40:28.827Z,11.70
2018-10-07T07:42:57.038Z,11.90
2018-10-07T07:45:25.277Z,11.90
2018-10-07T07:47:53.502Z,12.00
2018-10-07T07:50:21.701Z,12.10
2018-10-07T07:52:49.939Z,12.00
2018-10-07T07:55:18.141Z,12.30
2018-10-07T07:57:46.385Z,12.30
2018-10-07T08:00:15.203Z,12.20
2018-10-07T08:02:43.414Z,12.40
2018-10-07T08:05:11.625Z,12.50
2018-10-07T08:07:40.234Z,12.50
2018-10-07T08:10:08.446Z,12.50
2018-10-07T08:12:36.734Z,12.40
2018-10-07T08:15:05.963Z,12.20
2018-10-07T08:17:34.457Z,12.40
2018-10-07T08:20:02.690Z,12.40
2018-10-07T08:22:30.913Z,12.50
2018-10-07T08:24:59.190Z,12.50
2018-10-07T08:27:27.518Z,12.50
2018-10-07T08:29:55.769Z,12.70
2018-10-07T08:32:23.992Z,12.80
2018-10-07T08:34:52.198Z,12.80
2018-10-07T08:37:20.657Z,12.70
2018-10-07T08:39:48.893Z,12.90
2018-10-07T08:42:17.111Z,12.90
2018-10-07T08:44:45.342Z,12.90
2018-10-07T08:47:13.545Z,12.80
2018-10-07T08:49:41.796Z,13.00
2018-10-07T08:52:10.749Z,13.20
2018-10-07T08:54:38.982Z,13.40
2018-10-07T08:57:07.594Z,13.30
2018-10-07T08:59:36.538Z,13.50
2018-10-07T09:02:04.785Z,13.70
2018-10-07T09:04:32.969Z,13.80
2018-10-07T09:07:01.190Z,14.00
2018-10-07T09:09:29.395Z,14.10
2018-10-07T09:11:57.593Z,14.00
2018-10-07T09:14:27.104Z,14.30
2018-10-07T09:16:55.330Z,13.80
2018-10-07T09:19:23.547Z,13.50
2018-10-07T09:21:52.217Z,13.60
2018-10-07T09:24:20.435Z,14.10
2018-10-07T09:26:48.669Z,14.40
2018-10-07T09:29:17.006Z,14.40
2018-10-07T09:31:45.340Z,14.40
2018-10-07T09:34:13.554Z,14.40
2018-10-07T09:36:41.869Z,14.70
2018-10-07T09:39:11.494Z,14.60
2018-10-07T09:41:39.675Z,14.80
2018-10-07T09:44:08.084Z,14.80
2018-10-07T09:46:36.327Z,14.50
2018-10-07T09:49:04.839Z,14.00
2018-10-07T09:51:33.122Z,13.70
2018-10-07T09:54:02.314Z,14.00
2018-10-07T09:56:30.544Z,14.20
2018-10-07T09:58:59.133Z,13.70
2018-10-07T10:01:27.366Z,13.60
2018-10-07T10:03:56.294Z,13.60
2018-10-07T10:06:25.091Z,13.40
2018-10-07T10:08:53.299Z,13.30
2018-10-07T10:11:21.619Z,13.10
2018-10-07T10:13:49.782Z,13.40
2018-10-07T10:16:17.994Z,14.00
2018-10-07T10:18:51.459Z,14.10
2018-10-07T10:21:47.154Z,13.80
2018-10-07T10:26:29.754Z,14.50
2018-10-07T10:29:13.334Z,15.00
2018-10-07T10:31:53.625Z,15.60
2018-10-07T10:36:37.850Z,15.80
2018-10-07T10:40:15.208Z,15.40
2018-10-07T10:42:46.805Z,16.00
2018-10-07T10:45:26.510Z,16.20
2018-10-07T10:47:57.643Z,16.00
2018-10-07T10:50:38.062Z,15.90
2018-10-07T10:53:24.677Z,15.30
2018-10-07T10:56:05.403Z,15.60
2018-10-07T11:00:45.365Z,15.30
2018-10-07T11:03:22.453Z,15.20
2018-10-07T11:06:01.996Z,15.20
2018-10-07T11:08:35.920Z,15.20
2018-10-07T11:12:14.515Z,16.00
2018-10-07T11:16:57.068Z,15.50
2018-10-07T11:19:33.420Z,16.40
2018-10-07T11:24:15.253Z,16.20
2018-10-07T11:26:47.974Z,16.10
2018-10-07T11:33:39.340Z,15.30
2018-10-07T11:36:19.060Z,15.50
2018-10-07T11:39:00.878Z,15.00
2018-10-07T11:41:33.433Z,14.90
2018-10-07T11:44:14.330Z,14.90
2018-10-07T11:47:22.902Z,15.20
2018-10-07T11:52:04.533Z,15.90
2018-10-07T11:55:05.433Z,16.50
2018-10-07T11:57:34.226Z,16.20
2018-10-07T12:00:02.702Z,16.20
2018-10-07T12:02:30.951Z,16.50
2018-10-07T12:04:59.562Z,16.00
2018-10-07T12:07:29.384Z,16.50
2018-10-07T12:09:57.626Z,17.10
2018-10-07T12:12:25.863Z,16.80
2018-10-07T12:14:54.086Z,16.80
2018-10-07T12:17:22.306Z,16.00
2018-10-07T12:19:50.543Z,16.20
2018-10-07T12:22:18.758Z,16.30
2018-10-07T12:24:46.988Z,16.90
2018-10-07T12:27:16.074Z,16.60
2018-10-07T12:29:44.308Z,16.00
2018-10-07T12:32:13.082Z,15.70
2018-10-07T12:34:41.428Z,15.40
2018-10-07T12:37:09.719Z,15.60
2018-10-07T12:39:38.022Z,16.00
2018-10-07T12:42:06.332Z,16.10
2018-10-07T12:44:34.554Z,15.90
2018-10-07T12:47:02.812Z,15.90
2018-10-07T12:49:31.138Z,15.70
2018-10-07T12:51:59.381Z,15.80
2018-10-07T12:54:27.721Z,15.70
2018-10-07T12:56:56.382Z,16.00
2018-10-07T12:59:24.614Z,16.30
2018-10-07T13:01:52.861Z,16.30
2018-10-07T13:04:21.082Z,16.20
2018-10-07T13:06:49.282Z,16.20
2018-10-07T13:09:17.578Z,16.70
2018-10-07T13:11:46.590Z,17.10
2018-10-07T13:14:14.798Z,17.20
2018-10-07T13:16:43.024Z,17.20
2018-10-07T13:19:11.630Z,16.70
2018-10-07T13:21:39.809Z,17.00
2018-10-07T13:24:08.010Z,16.60
2018-10-07T13:26:36.766Z,16.30
2018-10-07T13:29:05.019Z,16.30
2018-10-07T13:31:33.266Z,16.30
2018-10-07T13:34:01.846Z,16.20
2018-10-07T13:36:30.078Z,16.10
2018-10-07T13:38:58.363Z,16.20
2018-10-07T13:41:26.669Z,16.20
2018-10-07T13:43:54.923Z,15.80
2018-10-07T13:46:23.135Z,15.90
2018-10-07T13:48:51.965Z,16.00
2018-10-07T13:51:20.200Z,16.20
2018-10-07T13:53:48.482Z,16.20
2018-10-07T13:56:17.428Z,16.10
2018-10-07T13:58:46.242Z,16.10
2018-10-07T14:01:14.706Z,15.90
2018-10-07T14:03:43.314Z,16.10
2018-10-07T14:06:11.532Z,15.90
2018-10-07T14:08:39.828Z,15.80
2018-10-07T14:11:08.184Z,15.80
2018-10-07T14:13:36.402Z,15.90
2018-10-07T14:16:04.613Z,15.70
2018-10-07T14:18:33.137Z,15.60
2018-10-07T14:21:01.345Z,15.60
2018-10-07T14:23:29.567Z,15.60
2018-10-07T14:25:57.901Z,15.60
2018-10-07T14:28:26.133Z,15.70
2018-10-07T14:30:54.350Z,15.50
2018-10-07T14:33:22.737Z,15.40
2018-10-07T14:35:50.945Z,15.30
2018-10-07T14:38:19.438Z,15.20
2018-10-07T14:40:47.970Z,15.20
2018-10-07T14:43:16.179Z,15.20
2018-10-07T14:45:44.414Z,15.20
2018-10-07T14:48:12.721Z,15.40
2018-10-07T14:50:40.975Z,15.40
2018-10-07T14:53:09.182Z,15.30
2018-10-07T14:55:37.411Z,15.30
2018-10-07T14:58:05.873Z,15.40
2018-10-07T15:00:34.090Z,15.20
2018-10-07T15:03:02.693Z,15.20
2018-10-07T15:05:30.939Z,15.20
2018-10-07T15:07:59.162Z,15.40
2018-10-07T15:10:27.679Z,15.40
2018-10-07T15:12:55.883Z,15.30
2018-10-07T15:15:24.213Z,15.40
2018-10-07T15:17:52.426Z,15.30
2018-10-07T15:20:20.649Z,15.30
2018-10-07T15:22:48.866Z,15.40
2018-10-07T15:25:17.133Z,15.40
2018-10-07T15:27:45.349Z,15.40
2018-10-07T15:30:13.574Z,15.50
2018-10-07T15:32:41.890Z,15.30
2018-10-07T15:35:10.111Z,15.10
2018-10-07T15:37:38.342Z,15.00
2018-10-07T15:40:07.208Z,14.90
2018-10-07T15:42:35.482Z,14.80
2018-10-07T15:45:03.740Z,14.90
2018-10-07T15:47:32.673Z,14.70
2018-10-07T15:50:00.866Z,14.70
2018-10-07T15:52:29.094Z,14.70
2018-10-07T15:54:57.467Z,14.70
2018-10-07T15:57:25.830Z,14.70
2018-10-07T15:59:54.470Z,14.70
2018-10-07T16:02:23.657Z,14.70
2018-10-07T16:04:51.894Z,14.60
2018-10-07T16:07:20.122Z,14.60
2018-10-07T16:09:48.697Z,14.50
2018-10-07T16:12:16.928Z,14.40
2018-10-07T16:14:45.249Z,14.40
2018-10-07T16:17:13.934Z,14.30
2018-10-07T16:19:42.180Z,14.30
2018-10-07T16:22:10.425Z,14.20
2018-10-07T16:24:39.006Z,14.20
2018-10-07T16:27:07.390Z,14.20
2018-10-07T16:29:35.609Z,14.10
2018-10-07T16:32:04.574Z,14.00
2018-10-07T16:34:32.786Z,14.00
2018-10-07T16:37:01.034Z,13.80
2018-10-07T16:39:29.960Z,13.70
2018-10-07T16:41:58.162Z,13.60
2018-10-07T16:44:27.445Z,13.50
2018-10-07T16:46:55.689Z,13.50
2018-10-07T16:49:24.566Z,13.30
2018-10-07T16:51:52.786Z,13.20
2018-10-07T16:54:22.054Z,13.10
2018-10-07T16:56:50.294Z,13.00
2018-10-07T16:59:18.979Z,12.90
2018-10-07T17:01:47.631Z,12.80
2018-10-07T17:04:15.887Z,12.70
2018-10-07T17:06:44.271Z,12.60
2018-10-07T17:09:13.191Z,12.50
2018-10-07T17:11:41.497Z,12.50
2018-10-07T17:14:09.809Z,12.40
2018-10-07T17:16:38.518Z,12.30
2018-10-07T17:19:06.829Z,12.30
2018-10-07T17:21:35.038Z,12.20
2018-10-07T17:24:03.555Z,12.20
2018-10-07T17:26:31.787Z,12.00
2018-10-07T17:28:59.994Z,11.90
2018-10-07T17:31:28.241Z,11.80
2018-10-07T17:33:56.930Z,11.80
2018-10-07T17:36:25.263Z,11.70
2018-10-07T17:38:54.797Z,11.80
2018-10-07T17:41:23.028Z,11.70
2018-10-07T17:43:51.326Z,11.60
2018-10-07T17:46:19.727Z,11.70
2018-10-07T17:48:48.151Z,11.70
2018-10-07T17:51:16.264Z,11.70
2018-10-07T17:53:45.092Z,11.60
2018-10-07T17:56:13.300Z,11.60
2018-10-07T17:58:41.548Z,11.60
2018-10-07T18:01:09.919Z,11.60
2018-10-07T18:03:38.161Z,11.60
2018-10-07T18:06:06.422Z,11.40
2018-10-07T18:08:34.770Z,11.40
2018-10-07T18:11:03.134Z,11.40
2018-10-07T18:13:31.383Z,11.30
2018-10-07T18:15:59.973Z,11.30
2018-10-07T18:18:28.241Z,11.20
2018-10-07T18:20:56.470Z,11.20
2018-10-07T18:23:25.499Z,11.20
2018-10-07T18:25:53.798Z,11.10
2018-10-07T18:28:22.990Z,11.10
2018-10-07T18:30:51.619Z,11.10
2018-10-07T18:33:19.954Z,11.00
2018-10-07T18:35:48.794Z,11.00
2018-10-07T18:38:17.374Z,11.00
2018-10-07T18:40:45.662Z,10.90
2018-10-07T18:43:13.910Z,10.90
2018-10-07T18:45:43.842Z,10.80
2018-10-07T18:48:12.166Z,10.80
2018-10-07T18:50:40.460Z,10.80
2018-10-07T18:53:09.264Z,10.60
2018-10-07T18:55:37.490Z,10.60
2018-10-07T18:58:06.686Z,10.50
2018-10-07T19:00:35.540Z,10.50
2018-10-07T19:03:03.962Z,10.60
2018-10-07T19:05:32.034Z,10.50
2018-10-07T19:08:00.282Z,10.50
2018-10-07T19:10:28.559Z,10.50
2018-10-07T19:12:56.778Z,10.40
2018-10-07T19:15:25.142Z,10.30
2018-10-07T19:17:53.426Z,10.40
2018-10-07T19:20:21.639Z,10.30
2018-10-07T19:22:50.756Z,10.20
2018-10-07T19:25:20.218Z,10.20
2018-10-07T19:27:48.975Z,10.10
2018-10-07T19:30:17.938Z,10.10
2018-10-07T19:32:46.174Z,10.00
2018-10-07T19:35:14.457Z,10.00
2018-10-07T19:37:43.739Z,10.00
2018-10-07T19:40:11.978Z,10.10
2018-10-07T19:42:41.493Z,10.10
2018-10-07T19:45:09.753Z,10.10
2018-10-07T19:47:37.981Z,10.10
2018-10-07T19:50:06.242Z,10.10
2018-10-07T19:52:34.638Z,9.90
2018-10-07T19:55:02.891Z,9.90
2018-10-07T19:57:31.187Z,9.80
2018-10-07T20:00:00.646Z,9.70
2018-10-07T20:02:28.930Z,9.70
2018-10-07T20:04:57.150Z,9.60
2018-10-07T20:07:26.310Z,9.60
2018-10-07T20:09:54.518Z,9.50
2018-10-07T20:12:22.750Z,9.50
2018-10-07T20:14:51.326Z,9.60
2018-10-07T20:17:19.540Z,9.70
2018-10-07T20:19:47.774Z,9.70
2018-10-07T20:22:17.518Z,9.70
2018-10-07T20:24:45.749Z,9.60
2018-10-07T20:27:13.957Z,9.60
2018-10-07T20:29:42.930Z,9.60
2018-10-07T20:32:11.314Z,9.60
2018-10-07T20:34:40.646Z,9.40
2018-10-07T20:37:09.305Z,9.40
2018-10-07T20:39:37.552Z,9.40
2018-10-07T20:42:05.798Z,9.40
2018-10-07T20:44:34.442Z,9.30
2018-10-07T20:47:02.695Z,9.40
2018-10-07T20:49:30.981Z,9.40
2018-10-07T20:52:00.021Z,9.40
2018-10-07T20:54:28.263Z,9.50
2018-10-07T20:56:56.572Z,9.50
2018-10-07T20:59:25.742Z,9.40
2018-10-07T21:01:53.938Z,9.30
2018-10-07T21:04:22.170Z,9.20
2018-10-07T21:06:50.685Z,9.10
2018-10-07T21:09:18.882Z,9.20
2018-10-07T21:11:47.078Z,9.10
2018-10-07T21:14:15.706Z,9.10
2018-10-07T21:16:43.924Z,9.00
2018-10-07T21:19:12.289Z,9.00
2018-10-07T21:21:40.646Z,9.00
2018-10-07T21:24:08.974Z,8.90
2018-10-07T21:26:37.148Z,8.80
2018-10-07T21:29:05.850Z,8.80
2018-10-07T21:31:34.126Z,8.90
2018-10-07T21:34:02.330Z,8.90
2018-10-07T21:36:30.775Z,8.90
2018-10-07T21:38:59.055Z,8.80
2018-10-07T21:41:27.313Z,8.80
2018-10-07T21:43:56.566Z,8.70
2018-10-07T21:46:24.876Z,8.70
2018-10-07T21:48:53.089Z,8.70
2018-10-07T21:51:21.320Z,8.70
2018-10-07T21:53:49.642Z,8.70
2018-10-07T21:56:17.851Z,8.70
2018-10-07T21:58:46.090Z,8.70
2018-10-07T22:01:14.346Z,8.60
2018-10-07T22:03:42.642Z,8.60
2018-10-07T22:06:10.985Z,8.60
2018-10-07T22:08:39.194Z,8.70
2018-10-07T22:11:07.437Z,8.60
2018-10-07T22:13:36.098Z,8.50
2018-10-07T22:16:04.376Z,8.50
2018-10-07T22:18:32.631Z,8.40
2018-10-07T22:21:00.914Z,8.30
2018-10-07T22:23:29.250Z,8.40
2018-10-07T22:25:57.567Z,8.50
2018-10-07T22:28:26.384Z,8.50
2018-10-07T22:30:54.786Z,8.60
2018-10-07T22:33:23.154Z,8.50
2018-10-07T22:35:51.770Z,8.40
2018-10-07T22:38:20.042Z,8.40
2018-10-07T22:40:48.250Z,8.40
2018-10-07T22:43:17.167Z,8.40
2018-10-07T22:45:45.396Z,8.50
2018-10-07T22:48:13.635Z,8.40
2018-10-07T22:50:42.267Z,8.30
2018-10-07T22:53:10.466Z,8.20
2018-10-07T22:55:38.758Z,8.10
2018-10-07T22:58:07.454Z,8.00
2018-10-07T23:00:35.778Z,8.10
2018-10-07T23:03:03.942Z,8.10
2018-10-07T23:05:32.290Z,8.00
2018-10-07T23:08:00.631Z,8.20
2018-10-07T23:10:28.848Z,8.20
2018-10-07T23:12:57.640Z,8.20
2018-10-07T23:15:25.905Z,8.10
2018-10-07T23:17:54.162Z,8.00
2018-10-07T23:20:22.427Z,8.00
2018-10-07T23:22:50.678Z,8.00
2018-10-07T23:25:18.984Z,8.00
2018-10-07T23:27:47.538Z,8.00
2018-10-07T23:30:15.834Z,7.90
2018-10-07T23:32:44.070Z,8.00
2018-10-07T23:35:12.393Z,7.90
2018-10-07T23:37:40.639Z,7.90
2018-10-07T23:40:09.359Z,7.90
2018-10-07T23:42:38.154Z,7.80
2018-10-07T23:45:06.423Z,7.90
2018-10-07T23:47:35.282Z,8.00
2018-10-07T23:50:03.606Z,8.00
2018-10-07T23:52:31.841Z,8.00
2018-10-07T23:55:00.083Z,8.00
2018-10-07T23:57:28.710Z,8.00
2018-10-07T23:59:56.918Z,8.00
